sensor_id;sensor_type;location;lat;lon;timestamp;P1;durP1;ratioP1;P2;durP2;ratioP2
75295;SDS011;64623;44.738;37.804;2023-07-13T00:00:58;7.35;;;4.65;;
75295;SDS011;64623;44.738;37.804;2023-07-13T00:02:01;8.18;;;5.00;;
75295;SDS011;64623;44.738;37.804;2023-07-13T00:03:04;6.22;;;5.07;;
75295;SDS011;64623;44.738;37.804;2023-07-13T00:04:07;8.27;;;5.35;;
75295;SDS011;64623;44.738;37.804;2023-07-13T00:05:10;6.25;;;5.55;;
75295;SDS011;64623;44.738;37.804;2023-07-13T00:06:13;6.47;;;4.93;;
75295;SDS011;64623;44.738;37.804;2023-07-13T00:07:16;7.57;;;5.30;;
75295;SDS011;64623;44.738;37.804;2023-07-13T00:08:22;6.88;;;5.88;;
75295;SDS011;64623;44.738;37.804;2023-07-13T00:09:25;5.65;;;4.53;;
75295;SDS011;64623;44.738;37.804;2023-07-13T00:10:34;7.30;;;5.80;;
75295;SDS011;64623;44.738;37.804;2023-07-13T00:11:41;6.72;;;6.13;;
75295;SDS011;64623;44.738;37.804;2023-07-13T00:12:45;7.53;;;5.35;;
75295;SDS011;64623;44.738;37.804;2023-07-13T00:13:48;5.57;;;5.00;;
75295;SDS011;64623;44.738;37.804;2023-07-13T00:14:51;6.47;;;5.60;;
75295;SDS011;64623;44.738;37.804;2023-07-13T00:15:54;5.07;;;4.35;;
75295;SDS011;64623;44.738;37.804;2023-07-13T00:16:58;6.38;;;5.75;;
75295;SDS011;64623;44.738;37.804;2023-07-13T00:18:02;6.03;;;5.30;;
75295;SDS011;64623;44.738;37.804;2023-07-13T00:19:06;5.20;;;4.68;;
75295;SDS011;64623;44.738;37.804;2023-07-13T00:20:09;5.93;;;3.95;;
75295;SDS011;64623;44.738;37.804;2023-07-13T00:21:13;8.10;;;5.78;;
75295;SDS011;64623;44.738;37.804;2023-07-13T00:22:16;6.13;;;5.53;;
75295;SDS011;64623;44.738;37.804;2023-07-13T00:23:20;9.18;;;6.22;;
75295;SDS011;64623;44.738;37.804;2023-07-13T00:24:23;6.53;;;5.82;;
75295;SDS011;64623;44.738;37.804;2023-07-13T00:25:26;6.95;;;5.85;;
75295;SDS011;64623;44.738;37.804;2023-07-13T00:26:33;5.95;;;5.25;;
75295;SDS011;64623;44.738;37.804;2023-07-13T00:27:36;6.80;;;6.13;;
75295;SDS011;64623;44.738;37.804;2023-07-13T00:28:40;6.78;;;5.95;;
75295;SDS011;64623;44.738;37.804;2023-07-13T00:29:44;6.60;;;5.93;;
75295;SDS011;64623;44.738;37.804;2023-07-13T00:30:47;9.25;;;5.32;;
75295;SDS011;64623;44.738;37.804;2023-07-13T00:31:50;9.00;;;6.75;;
75295;SDS011;64623;44.738;37.804;2023-07-13T00:32:53;8.65;;;6.32;;
75295;SDS011;64623;44.738;37.804;2023-07-13T00:34:02;8.93;;;6.55;;
75295;SDS011;64623;44.738;37.804;2023-07-13T00:35:06;8.75;;;6.40;;
75295;SDS011;64623;44.738;37.804;2023-07-13T00:36:10;7.45;;;6.75;;
75295;SDS011;64623;44.738;37.804;2023-07-13T00:37:13;9.57;;;6.68;;
75295;SDS011;64623;44.738;37.804;2023-07-13T00:38:16;7.50;;;6.47;;
75295;SDS011;64623;44.738;37.804;2023-07-13T00:39:19;7.20;;;6.28;;
75295;SDS011;64623;44.738;37.804;2023-07-13T00:40:23;7.63;;;6.47;;
75295;SDS011;64623;44.738;37.804;2023-07-13T00:41:27;7.53;;;6.78;;
75295;SDS011;64623;44.738;37.804;2023-07-13T00:42:31;7.40;;;6.63;;
75295;SDS011;64623;44.738;37.804;2023-07-13T00:43:34;7.70;;;7.03;;
75295;SDS011;64623;44.738;37.804;2023-07-13T00:44:37;8.48;;;6.32;;
75295;SDS011;64623;44.738;37.804;2023-07-13T00:46:45;8.52;;;7.30;;
75295;SDS011;64623;44.738;37.804;2023-07-13T00:47:48;7.93;;;7.13;;
75295;SDS011;64623;44.738;37.804;2023-07-13T00:48:53;7.88;;;7.10;;
75295;SDS011;64623;44.738;37.804;2023-07-13T00:49:58;7.72;;;6.93;;
75295;SDS011;64623;44.738;37.804;2023-07-13T00:51:02;5.95;;;5.35;;
75295;SDS011;64623;44.738;37.804;2023-07-13T00:52:06;8.70;;;7.90;;
75295;SDS011;64623;44.738;37.804;2023-07-13T00:53:11;8.45;;;6.55;;
75295;SDS011;64623;44.738;37.804;2023-07-13T00:54:18;8.30;;;6.88;;
75295;SDS011;64623;44.738;37.804;2023-07-13T00:55:25;7.63;;;6.82;;
75295;SDS011;64623;44.738;37.804;2023-07-13T00:56:28;8.82;;;8.02;;
75295;SDS011;64623;44.738;37.804;2023-07-13T00:57:35;7.13;;;6.43;;
75295;SDS011;64623;44.738;37.804;2023-07-13T00:58:38;7.15;;;6.43;;
75295;SDS011;64623;44.738;37.804;2023-07-13T00:59:42;8.25;;;6.70;;
75295;SDS011;64623;44.738;37.804;2023-07-13T01:00:48;8.27;;;7.47;;
75295;SDS011;64623;44.738;37.804;2023-07-13T01:01:53;7.57;;;6.88;;
75295;SDS011;64623;44.738;37.804;2023-07-13T01:02:57;9.70;;;6.85;;
75295;SDS011;64623;44.738;37.804;2023-07-13T01:04:01;9.38;;;7.72;;
75295;SDS011;64623;44.738;37.804;2023-07-13T01:05:10;7.13;;;6.45;;
75295;SDS011;64623;44.738;37.804;2023-07-13T01:06:16;8.57;;;7.80;;
75295;SDS011;64623;44.738;37.804;2023-07-13T01:07:20;8.85;;;7.97;;
75295;SDS011;64623;44.738;37.804;2023-07-13T01:08:23;7.82;;;6.65;;
75295;SDS011;64623;44.738;37.804;2023-07-13T01:09:27;8.18;;;7.22;;
75295;SDS011;64623;44.738;37.804;2023-07-13T01:10:31;8.80;;;7.30;;
75295;SDS011;64623;44.738;37.804;2023-07-13T01:11:41;8.52;;;6.80;;
75295;SDS011;64623;44.738;37.804;2023-07-13T01:12:44;9.75;;;8.85;;
75295;SDS011;64623;44.738;37.804;2023-07-13T01:13:48;10.25;;;9.30;;
75295;SDS011;64623;44.738;37.804;2023-07-13T01:14:56;11.38;;;7.70;;
75295;SDS011;64623;44.738;37.804;2023-07-13T01:16:05;9.15;;;6.15;;
75295;SDS011;64623;44.738;37.804;2023-07-13T01:17:17;8.82;;;8.00;;
75295;SDS011;64623;44.738;37.804;2023-07-13T01:18:22;9.23;;;8.43;;
75295;SDS011;64623;44.738;37.804;2023-07-13T01:19:33;9.02;;;7.55;;
75295;SDS011;64623;44.738;37.804;2023-07-13T01:20:46;9.70;;;8.05;;
75295;SDS011;64623;44.738;37.804;2023-07-13T01:21:55;9.57;;;8.38;;
75295;SDS011;64623;44.738;37.804;2023-07-13T01:22:58;9.23;;;8.27;;
75295;SDS011;64623;44.738;37.804;2023-07-13T01:24:04;8.55;;;7.65;;
75295;SDS011;64623;44.738;37.804;2023-07-13T01:25:08;8.48;;;6.90;;
75295;SDS011;64623;44.738;37.804;2023-07-13T01:26:11;7.43;;;6.82;;
75295;SDS011;64623;44.738;37.804;2023-07-13T01:27:16;10.13;;;9.07;;
75295;SDS011;64623;44.738;37.804;2023-07-13T01:28:23;8.35;;;7.57;;
75295;SDS011;64623;44.738;37.804;2023-07-13T01:29:30;8.88;;;8.07;;
75295;SDS011;64623;44.738;37.804;2023-07-13T01:30:33;11.90;;;7.60;;
75295;SDS011;64623;44.738;37.804;2023-07-13T01:31:37;8.05;;;6.70;;
75295;SDS011;64623;44.738;37.804;2023-07-13T01:32:40;9.35;;;8.45;;
75295;SDS011;64623;44.738;37.804;2023-07-13T01:33:44;8.75;;;8.00;;
75295;SDS011;64623;44.738;37.804;2023-07-13T01:34:48;8.25;;;7.22;;
75295;SDS011;64623;44.738;37.804;2023-07-13T01:35:52;9.95;;;7.90;;
75295;SDS011;64623;44.738;37.804;2023-07-13T01:36:55;8.43;;;7.72;;
75295;SDS011;64623;44.738;37.804;2023-07-13T01:37:58;9.98;;;7.82;;
75295;SDS011;64623;44.738;37.804;2023-07-13T01:39:02;10.35;;;7.85;;
75295;SDS011;64623;44.738;37.804;2023-07-13T01:40:06;11.30;;;8.00;;
75295;SDS011;64623;44.738;37.804;2023-07-13T01:41:10;7.13;;;6.47;;
75295;SDS011;64623;44.738;37.804;2023-07-13T01:42:14;8.98;;;8.07;;
75295;SDS011;64623;44.738;37.804;2023-07-13T01:43:22;9.50;;;7.50;;
75295;SDS011;64623;44.738;37.804;2023-07-13T01:44:25;7.93;;;7.22;;
75295;SDS011;64623;44.738;37.804;2023-07-13T01:45:28;9.43;;;8.50;;
75295;SDS011;64623;44.738;37.804;2023-07-13T01:46:31;7.95;;;7.15;;
75295;SDS011;64623;44.738;37.804;2023-07-13T01:47:34;8.35;;;7.55;;
75295;SDS011;64623;44.738;37.804;2023-07-13T01:48:37;9.27;;;8.48;;
75295;SDS011;64623;44.738;37.804;2023-07-13T01:49:41;10.68;;;9.63;;
75295;SDS011;64623;44.738;37.804;2023-07-13T01:50:44;10.40;;;9.38;;
75295;SDS011;64623;44.738;37.804;2023-07-13T01:51:47;10.10;;;8.23;;
75295;SDS011;64623;44.738;37.804;2023-07-13T01:52:50;8.80;;;7.90;;
75295;SDS011;64623;44.738;37.804;2023-07-13T01:53:53;11.23;;;9.50;;
75295;SDS011;64623;44.738;37.804;2023-07-13T01:54:58;9.45;;;7.97;;
75295;SDS011;64623;44.738;37.804;2023-07-13T01:56:01;9.10;;;8.20;;
75295;SDS011;64623;44.738;37.804;2023-07-13T01:57:04;8.10;;;7.30;;
75295;SDS011;64623;44.738;37.804;2023-07-13T01:58:07;8.93;;;7.63;;
75295;SDS011;64623;44.738;37.804;2023-07-13T01:59:11;11.90;;;10.98;;
75295;SDS011;64623;44.738;37.804;2023-07-13T02:00:14;11.05;;;9.85;;
75295;SDS011;64623;44.738;37.804;2023-07-13T02:01:17;11.00;;;9.98;;
75295;SDS011;64623;44.738;37.804;2023-07-13T02:02:21;9.23;;;8.30;;
75295;SDS011;64623;44.738;37.804;2023-07-13T02:03:24;10.73;;;8.60;;
75295;SDS011;64623;44.738;37.804;2023-07-13T02:04:27;8.75;;;7.60;;
75295;SDS011;64623;44.738;37.804;2023-07-13T02:05:30;9.60;;;7.80;;
75295;SDS011;64623;44.738;37.804;2023-07-13T02:06:33;9.55;;;8.60;;
75295;SDS011;64623;44.738;37.804;2023-07-13T02:07:37;11.65;;;10.55;;
75295;SDS011;64623;44.738;37.804;2023-07-13T02:08:46;10.20;;;9.20;;
75295;SDS011;64623;44.738;37.804;2023-07-13T02:09:49;9.35;;;8.50;;
75295;SDS011;64623;44.738;37.804;2023-07-13T02:10:52;10.82;;;10.02;;
75295;SDS011;64623;44.738;37.804;2023-07-13T02:11:55;11.43;;;10.43;;
75295;SDS011;64623;44.738;37.804;2023-07-13T02:12:58;10.95;;;9.98;;
75295;SDS011;64623;44.738;37.804;2023-07-13T02:14:02;10.90;;;9.82;;
75295;SDS011;64623;44.738;37.804;2023-07-13T02:15:06;10.05;;;9.23;;
75295;SDS011;64623;44.738;37.804;2023-07-13T02:16:09;10.02;;;9.07;;
75295;SDS011;64623;44.738;37.804;2023-07-13T02:17:13;9.68;;;8.65;;
75295;SDS011;64623;44.738;37.804;2023-07-13T02:18:16;10.60;;;9.60;;
75295;SDS011;64623;44.738;37.804;2023-07-13T02:19:39;10.63;;;9.73;;
75295;SDS011;64623;44.738;37.804;2023-07-13T02:20:43;11.60;;;10.50;;
75295;SDS011;64623;44.738;37.804;2023-07-13T02:21:46;12.55;;;11.35;;
75295;SDS011;64623;44.738;37.804;2023-07-13T02:22:49;11.07;;;10.18;;
75295;SDS011;64623;44.738;37.804;2023-07-13T02:23:54;10.73;;;9.82;;
75295;SDS011;64623;44.738;37.804;2023-07-13T02:24:57;10.15;;;9.15;;
75295;SDS011;64623;44.738;37.804;2023-07-13T02:26:01;12.13;;;11.13;;
75295;SDS011;64623;44.738;37.804;2023-07-13T02:27:06;10.80;;;8.98;;
75295;SDS011;64623;44.738;37.804;2023-07-13T02:28:09;9.38;;;8.38;;
75295;SDS011;64623;44.738;37.804;2023-07-13T02:29:12;11.32;;;10.32;;
75295;SDS011;64623;44.738;37.804;2023-07-13T02:30:15;10.32;;;9.18;;
75295;SDS011;64623;44.738;37.804;2023-07-13T02:31:18;12.68;;;11.40;;
75295;SDS011;64623;44.738;37.804;2023-07-13T02:32:22;10.65;;;9.52;;
75295;SDS011;64623;44.738;37.804;2023-07-13T02:33:27;11.68;;;10.68;;
75295;SDS011;64623;44.738;37.804;2023-07-13T02:34:30;12.15;;;11.23;;
75295;SDS011;64623;44.738;37.804;2023-07-13T02:35:39;11.95;;;10.85;;
75295;SDS011;64623;44.738;37.804;2023-07-13T02:36:43;13.35;;;12.25;;
75295;SDS011;64623;44.738;37.804;2023-07-13T02:37:48;9.93;;;8.93;;
75295;SDS011;64623;44.738;37.804;2023-07-13T02:38:51;12.68;;;11.38;;
75295;SDS011;64623;44.738;37.804;2023-07-13T02:39:54;12.13;;;10.23;;
75295;SDS011;64623;44.738;37.804;2023-07-13T02:40:58;14.70;;;11.38;;
75295;SDS011;64623;44.738;37.804;2023-07-13T02:42:00;10.18;;;9.18;;
75295;SDS011;64623;44.738;37.804;2023-07-13T02:43:03;12.30;;;9.52;;
75295;SDS011;64623;44.738;37.804;2023-07-13T02:44:07;10.02;;;9.13;;
75295;SDS011;64623;44.738;37.804;2023-07-13T02:45:10;14.48;;;12.40;;
75295;SDS011;64623;44.738;37.804;2023-07-13T02:46:16;12.80;;;11.55;;
75295;SDS011;64623;44.738;37.804;2023-07-13T02:47:19;12.15;;;11.05;;
75295;SDS011;64623;44.738;37.804;2023-07-13T02:48:22;11.93;;;10.82;;
75295;SDS011;64623;44.738;37.804;2023-07-13T02:49:25;11.98;;;10.82;;
75295;SDS011;64623;44.738;37.804;2023-07-13T02:50:28;12.65;;;11.38;;
75295;SDS011;64623;44.738;37.804;2023-07-13T02:51:32;11.85;;;10.68;;
75295;SDS011;64623;44.738;37.804;2023-07-13T02:52:38;12.07;;;10.27;;
75295;SDS011;64623;44.738;37.804;2023-07-13T02:53:45;13.00;;;11.70;;
75295;SDS011;64623;44.738;37.804;2023-07-13T02:54:51;12.73;;;8.52;;
75295;SDS011;64623;44.738;37.804;2023-07-13T02:55:55;15.27;;;11.02;;
75295;SDS011;64623;44.738;37.804;2023-07-13T02:56:58;13.23;;;11.93;;
75295;SDS011;64623;44.738;37.804;2023-07-13T02:58:01;13.40;;;12.30;;
75295;SDS011;64623;44.738;37.804;2023-07-13T02:59:04;16.20;;;14.75;;
75295;SDS011;64623;44.738;37.804;2023-07-13T03:00:07;15.40;;;13.57;;
75295;SDS011;64623;44.738;37.804;2023-07-13T03:01:11;14.43;;;12.93;;
75295;SDS011;64623;44.738;37.804;2023-07-13T03:02:15;12.30;;;10.07;;
75295;SDS011;64623;44.738;37.804;2023-07-13T03:03:18;15.48;;;13.35;;
75295;SDS011;64623;44.738;37.804;2023-07-13T03:04:22;14.43;;;12.93;;
75295;SDS011;64623;44.738;37.804;2023-07-13T03:05:26;10.15;;;9.00;;
75295;SDS011;64623;44.738;37.804;2023-07-13T03:06:31;12.20;;;10.25;;
75295;SDS011;64623;44.738;37.804;2023-07-13T03:07:34;13.43;;;12.02;;
75295;SDS011;64623;44.738;37.804;2023-07-13T03:08:38;12.30;;;10.20;;
75295;SDS011;64623;44.738;37.804;2023-07-13T03:09:42;15.02;;;13.70;;
75295;SDS011;64623;44.738;37.804;2023-07-13T03:10:45;12.15;;;10.93;;
75295;SDS011;64623;44.738;37.804;2023-07-13T03:11:48;12.63;;;11.43;;
75295;SDS011;64623;44.738;37.804;2023-07-13T03:13:03;12.50;;;11.20;;
75295;SDS011;64623;44.738;37.804;2023-07-13T03:14:07;13.82;;;12.68;;
75295;SDS011;64623;44.738;37.804;2023-07-13T03:15:12;13.95;;;12.63;;
75295;SDS011;64623;44.738;37.804;2023-07-13T03:16:18;15.20;;;13.75;;
75295;SDS011;64623;44.738;37.804;2023-07-13T03:17:24;14.10;;;12.65;;
75295;SDS011;64623;44.738;37.804;2023-07-13T03:18:27;12.13;;;11.00;;
75295;SDS011;64623;44.738;37.804;2023-07-13T03:19:33;13.88;;;12.57;;
75295;SDS011;64623;44.738;37.804;2023-07-13T03:20:37;11.68;;;10.57;;
75295;SDS011;64623;44.738;37.804;2023-07-13T03:21:40;13.38;;;12.15;;
75295;SDS011;64623;44.738;37.804;2023-07-13T03:22:44;13.15;;;11.80;;
75295;SDS011;64623;44.738;37.804;2023-07-13T03:23:48;14.38;;;13.18;;
75295;SDS011;64623;44.738;37.804;2023-07-13T03:24:51;13.38;;;12.20;;
75295;SDS011;64623;44.738;37.804;2023-07-13T03:26:01;12.98;;;10.68;;
75295;SDS011;64623;44.738;37.804;2023-07-13T03:27:05;11.88;;;10.73;;
75295;SDS011;64623;44.738;37.804;2023-07-13T03:28:12;14.25;;;12.95;;
75295;SDS011;64623;44.738;37.804;2023-07-13T03:29:17;10.90;;;9.80;;
75295;SDS011;64623;44.738;37.804;2023-07-13T03:30:21;13.95;;;12.60;;
75295;SDS011;64623;44.738;37.804;2023-07-13T03:31:26;11.50;;;10.40;;
75295;SDS011;64623;44.738;37.804;2023-07-13T03:33:36;13.90;;;12.68;;
75295;SDS011;64623;44.738;37.804;2023-07-13T03:34:40;14.38;;;13.18;;
75295;SDS011;64623;44.738;37.804;2023-07-13T03:35:43;14.52;;;13.35;;
75295;SDS011;64623;44.738;37.804;2023-07-13T03:36:46;13.77;;;12.55;;
75295;SDS011;64623;44.738;37.804;2023-07-13T03:37:49;13.43;;;12.05;;
75295;SDS011;64623;44.738;37.804;2023-07-13T03:38:56;12.68;;;11.35;;
75295;SDS011;64623;44.738;37.804;2023-07-13T03:40:27;13.68;;;11.85;;
75295;SDS011;64623;44.738;37.804;2023-07-13T03:41:30;13.65;;;12.27;;
75295;SDS011;64623;44.738;37.804;2023-07-13T03:42:34;13.98;;;12.43;;
75295;SDS011;64623;44.738;37.804;2023-07-13T03:43:37;13.15;;;11.70;;
75295;SDS011;64623;44.738;37.804;2023-07-13T03:44:41;14.95;;;13.55;;
75295;SDS011;64623;44.738;37.804;2023-07-13T03:45:48;14.98;;;13.48;;
75295;SDS011;64623;44.738;37.804;2023-07-13T03:46:52;14.60;;;13.10;;
75295;SDS011;64623;44.738;37.804;2023-07-13T03:47:55;15.07;;;13.68;;
75295;SDS011;64623;44.738;37.804;2023-07-13T03:49:00;12.70;;;11.52;;
75295;SDS011;64623;44.738;37.804;2023-07-13T03:50:04;13.85;;;11.90;;
75295;SDS011;64623;44.738;37.804;2023-07-13T03:51:08;14.45;;;11.85;;
75295;SDS011;64623;44.738;37.804;2023-07-13T03:52:11;13.57;;;12.25;;
75295;SDS011;64623;44.738;37.804;2023-07-13T03:53:14;14.55;;;13.15;;
75295;SDS011;64623;44.738;37.804;2023-07-13T03:54:17;15.80;;;14.45;;
75295;SDS011;64623;44.738;37.804;2023-07-13T03:55:21;14.07;;;12.57;;
75295;SDS011;64623;44.738;37.804;2023-07-13T03:56:24;17.13;;;12.95;;
75295;SDS011;64623;44.738;37.804;2023-07-13T03:57:27;12.57;;;10.70;;
75295;SDS011;64623;44.738;37.804;2023-07-13T03:58:33;14.20;;;12.73;;
75295;SDS011;64623;44.738;37.804;2023-07-13T03:59:44;11.57;;;9.32;;
75295;SDS011;64623;44.738;37.804;2023-07-13T04:00:48;12.45;;;11.25;;
75295;SDS011;64623;44.738;37.804;2023-07-13T04:01:52;15.55;;;13.07;;
75295;SDS011;64623;44.738;37.804;2023-07-13T04:02:56;13.73;;;12.25;;
75295;SDS011;64623;44.738;37.804;2023-07-13T04:03:59;12.10;;;10.90;;
75295;SDS011;64623;44.738;37.804;2023-07-13T04:05:05;12.60;;;11.30;;
75295;SDS011;64623;44.738;37.804;2023-07-13T04:06:12;16.50;;;14.65;;
75295;SDS011;64623;44.738;37.804;2023-07-13T04:07:23;13.93;;;12.13;;
75295;SDS011;64623;44.738;37.804;2023-07-13T04:08:27;12.60;;;11.40;;
75295;SDS011;64623;44.738;37.804;2023-07-13T04:09:31;13.57;;;12.27;;
75295;SDS011;64623;44.738;37.804;2023-07-13T04:10:34;12.77;;;11.57;;
75295;SDS011;64623;44.738;37.804;2023-07-13T04:11:37;13.85;;;12.65;;
75295;SDS011;64623;44.738;37.804;2023-07-13T04:12:41;11.63;;;10.63;;
75295;SDS011;64623;44.738;37.804;2023-07-13T04:13:44;13.15;;;11.95;;
75295;SDS011;64623;44.738;37.804;2023-07-13T04:14:48;12.95;;;11.95;;
75295;SDS011;64623;44.738;37.804;2023-07-13T04:15:51;12.02;;;10.82;;
75295;SDS011;64623;44.738;37.804;2023-07-13T04:16:55;10.60;;;9.75;;
75295;SDS011;64623;44.738;37.804;2023-07-13T04:17:58;12.18;;;10.80;;
75295;SDS011;64623;44.738;37.804;2023-07-13T04:19:01;10.45;;;9.45;;
75295;SDS011;64623;44.738;37.804;2023-07-13T04:20:04;9.20;;;7.80;;
75295;SDS011;64623;44.738;37.804;2023-07-13T04:21:08;12.02;;;10.77;;
75295;SDS011;64623;44.738;37.804;2023-07-13T04:22:11;11.02;;;10.02;;
75295;SDS011;64623;44.738;37.804;2023-07-13T04:23:15;10.18;;;9.15;;
75295;SDS011;64623;44.738;37.804;2023-07-13T04:24:19;11.82;;;10.63;;
75295;SDS011;64623;44.738;37.804;2023-07-13T04:25:22;9.57;;;8.55;;
75295;SDS011;64623;44.738;37.804;2023-07-13T04:26:25;11.10;;;10.13;;
75295;SDS011;64623;44.738;37.804;2023-07-13T04:27:28;10.10;;;9.27;;
75295;SDS011;64623;44.738;37.804;2023-07-13T04:28:31;10.93;;;10.10;;
75295;SDS011;64623;44.738;37.804;2023-07-13T04:29:35;9.48;;;8.43;;
75295;SDS011;64623;44.738;37.804;2023-07-13T04:30:38;9.63;;;8.73;;
75295;SDS011;64623;44.738;37.804;2023-07-13T04:31:41;11.57;;;10.57;;
75295;SDS011;64623;44.738;37.804;2023-07-13T04:32:44;10.23;;;9.32;;
75295;SDS011;64623;44.738;37.804;2023-07-13T04:33:48;10.20;;;9.10;;
75295;SDS011;64623;44.738;37.804;2023-07-13T04:34:53;11.00;;;8.82;;
75295;SDS011;64623;44.738;37.804;2023-07-13T04:35:58;9.82;;;6.78;;
75295;SDS011;64623;44.738;37.804;2023-07-13T04:37:01;15.73;;;7.03;;
75295;SDS011;64623;44.738;37.804;2023-07-13T04:38:05;15.70;;;9.13;;
75295;SDS011;64623;44.738;37.804;2023-07-13T04:39:08;10.20;;;7.57;;
75295;SDS011;64623;44.738;37.804;2023-07-13T04:40:11;9.73;;;7.25;;
75295;SDS011;64623;44.738;37.804;2023-07-13T04:41:14;26.63;;;10.43;;
75295;SDS011;64623;44.738;37.804;2023-07-13T04:42:18;25.67;;;8.65;;
75295;SDS011;64623;44.738;37.804;2023-07-13T04:43:21;18.20;;;6.90;;
75295;SDS011;64623;44.738;37.804;2023-07-13T04:44:24;10.90;;;8.50;;
75295;SDS011;64623;44.738;37.804;2023-07-13T04:45:27;10.48;;;8.55;;
75295;SDS011;64623;44.738;37.804;2023-07-13T04:46:30;7.70;;;6.93;;
75295;SDS011;64623;44.738;37.804;2023-07-13T04:47:33;11.45;;;8.25;;
75295;SDS011;64623;44.738;37.804;2023-07-13T04:48:36;10.05;;;8.98;;
75295;SDS011;64623;44.738;37.804;2023-07-13T04:49:40;10.77;;;9.77;;
75295;SDS011;64623;44.738;37.804;2023-07-13T04:50:43;9.73;;;8.82;;
75295;SDS011;64623;44.738;37.804;2023-07-13T04:51:46;9.32;;;8.32;;
75295;SDS011;64623;44.738;37.804;2023-07-13T04:52:50;10.40;;;9.52;;
75295;SDS011;64623;44.738;37.804;2023-07-13T04:53:53;10.27;;;9.27;;
75295;SDS011;64623;44.738;37.804;2023-07-13T04:54:59;11.48;;;10.35;;
75295;SDS011;64623;44.738;37.804;2023-07-13T04:56:03;8.85;;;8.02;;
75295;SDS011;64623;44.738;37.804;2023-07-13T04:57:09;10.23;;;9.25;;
75295;SDS011;64623;44.738;37.804;2023-07-13T04:58:12;10.60;;;9.52;;
75295;SDS011;64623;44.738;37.804;2023-07-13T04:59:15;11.00;;;9.90;;
75295;SDS011;64623;44.738;37.804;2023-07-13T05:00:18;10.18;;;9.27;;
75295;SDS011;64623;44.738;37.804;2023-07-13T05:01:22;7.85;;;7.25;;
75295;SDS011;64623;44.738;37.804;2023-07-13T05:02:25;10.10;;;7.63;;
75295;SDS011;64623;44.738;37.804;2023-07-13T05:03:29;10.07;;;8.20;;
75295;SDS011;64623;44.738;37.804;2023-07-13T05:04:32;9.52;;;8.68;;
75295;SDS011;64623;44.738;37.804;2023-07-13T05:05:35;12.10;;;11.10;;
75295;SDS011;64623;44.738;37.804;2023-07-13T05:06:38;9.00;;;7.53;;
75295;SDS011;64623;44.738;37.804;2023-07-13T05:07:42;9.57;;;8.57;;
75295;SDS011;64623;44.738;37.804;2023-07-13T05:08:46;9.75;;;8.88;;
75295;SDS011;64623;44.738;37.804;2023-07-13T05:09:49;7.82;;;7.13;;
75295;SDS011;64623;44.738;37.804;2023-07-13T05:10:52;8.77;;;7.95;;
75295;SDS011;64623;44.738;37.804;2023-07-13T05:11:55;9.25;;;8.52;;
75295;SDS011;64623;44.738;37.804;2023-07-13T05:13:04;10.52;;;9.63;;
75295;SDS011;64623;44.738;37.804;2023-07-13T05:14:07;8.35;;;7.45;;
75295;SDS011;64623;44.738;37.804;2023-07-13T05:15:12;9.02;;;8.07;;
75295;SDS011;64623;44.738;37.804;2023-07-13T05:16:15;8.85;;;8.05;;
75295;SDS011;64623;44.738;37.804;2023-07-13T05:17:18;12.40;;;10.70;;
75295;SDS011;64623;44.738;37.804;2023-07-13T05:18:21;9.63;;;8.18;;
75295;SDS011;64623;44.738;37.804;2023-07-13T05:19:24;10.13;;;7.03;;
75295;SDS011;64623;44.738;37.804;2023-07-13T05:20:28;9.48;;;8.63;;
75295;SDS011;64623;44.738;37.804;2023-07-13T05:21:31;12.57;;;8.43;;
75295;SDS011;64623;44.738;37.804;2023-07-13T05:22:34;9.07;;;5.70;;
75295;SDS011;64623;44.738;37.804;2023-07-13T05:23:38;11.98;;;6.43;;
75295;SDS011;64623;44.738;37.804;2023-07-13T05:24:44;7.40;;;6.18;;
75295;SDS011;64623;44.738;37.804;2023-07-13T05:25:47;9.27;;;7.57;;
75295;SDS011;64623;44.738;37.804;2023-07-13T05:26:50;7.40;;;6.70;;
75295;SDS011;64623;44.738;37.804;2023-07-13T05:27:53;8.73;;;6.65;;
75295;SDS011;64623;44.738;37.804;2023-07-13T05:28:56;7.88;;;6.93;;
75295;SDS011;64623;44.738;37.804;2023-07-13T05:30:00;10.60;;;7.35;;
75295;SDS011;64623;44.738;37.804;2023-07-13T05:31:07;7.18;;;6.50;;
75295;SDS011;64623;44.738;37.804;2023-07-13T05:32:13;7.53;;;6.93;;
75295;SDS011;64623;44.738;37.804;2023-07-13T05:33:16;6.38;;;4.15;;
75295;SDS011;64623;44.738;37.804;2023-07-13T05:34:19;6.05;;;4.80;;
75295;SDS011;64623;44.738;37.804;2023-07-13T05:35:23;9.18;;;5.95;;
75295;SDS011;64623;44.738;37.804;2023-07-13T05:36:26;6.97;;;5.85;;
75295;SDS011;64623;44.738;37.804;2023-07-13T05:37:29;9.15;;;6.88;;
75295;SDS011;64623;44.738;37.804;2023-07-13T05:38:32;8.95;;;6.25;;
75295;SDS011;64623;44.738;37.804;2023-07-13T05:39:35;7.50;;;6.28;;
75295;SDS011;64623;44.738;37.804;2023-07-13T05:40:38;6.82;;;5.15;;
75295;SDS011;64623;44.738;37.804;2023-07-13T05:41:41;6.93;;;5.88;;
75295;SDS011;64623;44.738;37.804;2023-07-13T05:42:44;9.18;;;5.43;;
75295;SDS011;64623;44.738;37.804;2023-07-13T05:43:47;6.90;;;4.75;;
75295;SDS011;64623;44.738;37.804;2023-07-13T05:44:50;8.10;;;5.95;;
75295;SDS011;64623;44.738;37.804;2023-07-13T05:45:54;5.93;;;4.93;;
75295;SDS011;64623;44.738;37.804;2023-07-13T05:46:58;12.25;;;6.20;;
75295;SDS011;64623;44.738;37.804;2023-07-13T05:48:01;8.77;;;5.40;;
75295;SDS011;64623;44.738;37.804;2023-07-13T05:49:04;8.55;;;3.90;;
75295;SDS011;64623;44.738;37.804;2023-07-13T05:50:07;8.50;;;6.22;;
75295;SDS011;64623;44.738;37.804;2023-07-13T05:51:11;7.10;;;4.10;;
75295;SDS011;64623;44.738;37.804;2023-07-13T05:52:14;8.18;;;4.88;;
75295;SDS011;64623;44.738;37.804;2023-07-13T05:53:17;11.68;;;5.63;;
75295;SDS011;64623;44.738;37.804;2023-07-13T05:54:20;7.63;;;4.57;;
75295;SDS011;64623;44.738;37.804;2023-07-13T05:55:24;6.85;;;4.38;;
75295;SDS011;64623;44.738;37.804;2023-07-13T05:56:27;7.65;;;4.15;;
75295;SDS011;64623;44.738;37.804;2023-07-13T05:57:30;9.20;;;5.53;;
75295;SDS011;64623;44.738;37.804;2023-07-13T05:58:34;6.38;;;3.40;;
75295;SDS011;64623;44.738;37.804;2023-07-13T05:59:37;8.00;;;3.83;;
75295;SDS011;64623;44.738;37.804;2023-07-13T06:00:40;6.55;;;5.32;;
75295;SDS011;64623;44.738;37.804;2023-07-13T06:01:43;9.23;;;5.10;;
75295;SDS011;64623;44.738;37.804;2023-07-13T06:02:46;5.70;;;5.18;;
75295;SDS011;64623;44.738;37.804;2023-07-13T06:03:49;6.63;;;6.00;;
75295;SDS011;64623;44.738;37.804;2023-07-13T06:04:52;8.00;;;4.65;;
75295;SDS011;64623;44.738;37.804;2023-07-13T06:05:55;7.43;;;4.63;;
75295;SDS011;64623;44.738;37.804;2023-07-13T06:06:58;7.95;;;6.40;;
75295;SDS011;64623;44.738;37.804;2023-07-13T06:08:02;6.32;;;4.70;;
75295;SDS011;64623;44.738;37.804;2023-07-13T06:09:05;10.00;;;5.82;;
75295;SDS011;64623;44.738;37.804;2023-07-13T06:10:09;26.02;;;6.88;;
75295;SDS011;64623;44.738;37.804;2023-07-13T06:11:16;6.68;;;5.57;;
75295;SDS011;64623;44.738;37.804;2023-07-13T06:12:23;7.25;;;5.85;;
75295;SDS011;64623;44.738;37.804;2023-07-13T06:13:26;9.23;;;6.20;;
75295;SDS011;64623;44.738;37.804;2023-07-13T06:14:29;8.48;;;6.07;;
75295;SDS011;64623;44.738;37.804;2023-07-13T06:15:32;6.85;;;5.28;;
75295;SDS011;64623;44.738;37.804;2023-07-13T06:16:35;8.50;;;4.80;;
75295;SDS011;64623;44.738;37.804;2023-07-13T06:17:38;7.97;;;4.30;;
75295;SDS011;64623;44.738;37.804;2023-07-13T06:18:41;8.40;;;4.22;;